createdAt,value
2018-09-10T00:00:31.786Z,1014.22
2018-09-10T00:01:40.433Z,1014.24
2018-09-10T00:02:49.083Z,1014.26
2018-09-10T00:03:57.987Z,1014.28
2018-09-10T00:05:06.894Z,1014.27
2018-09-10T00:06:15.539Z,1014.25
2018-09-10T00:07:24.187Z,1014.24
2018-09-10T00:08:32.828Z,1014.25
2018-09-10T00:09:41.477Z,1014.28
2018-09-10T00:10:50.118Z,1014.27
2018-09-10T00:11:58.768Z,1014.29
2018-09-10T00:13:07.674Z,1014.29
2018-09-10T00:14:16.319Z,1014.3
2018-09-10T00:15:24.962Z,1014.33
2018-09-10T00:16:33.619Z,1014.28
2018-09-10T00:17:42.522Z,1014.26
2018-09-10T00:18:51.165Z,1014.24
2018-09-10T00:19:59.806Z,1014.25
2018-09-10T00:21:08.746Z,1014.22
2018-09-10T00:22:17.399Z,1014.25
2018-09-10T00:23:26.036Z,1014.25
2018-09-10T00:24:34.949Z,1014.27
2018-09-10T00:25:43.589Z,1014.27
2018-09-10T00:26:52.242Z,1014.29
2018-09-10T00:28:00.883Z,1014.29
2018-09-10T00:29:09.789Z,1014.31
2018-09-10T00:30:18.425Z,1014.33
2018-09-10T00:31:27.078Z,1014.26
2018-09-10T00:32:35.725Z,1014.29
2018-09-10T00:33:44.367Z,1014.26
2018-09-10T00:34:53.008Z,1014.26
2018-09-10T00:36:01.916Z,1014.25
2018-09-10T00:37:10.565Z,1014.26
2018-09-10T00:38:19.216Z,1014.27
2018-09-10T00:39:27.867Z,1014.22
2018-09-10T00:40:36.502Z,1014.2
2018-09-10T00:41:45.157Z,1014.2
2018-09-10T00:42:53.798Z,1014.17
2018-09-10T00:44:02.724Z,1014.13
2018-09-10T00:45:11.360Z,1014.19
2018-09-10T00:46:20.009Z,1014.15
2018-09-10T00:47:28.648Z,1014.19
2018-09-10T00:48:37.306Z,1014.19
2018-09-10T00:49:46.201Z,1014.21
2018-09-10T00:50:54.850Z,1014.22
2018-09-10T00:52:03.492Z,1014.22
2018-09-10T00:53:12.152Z,1014.21
2018-09-10T00:54:20.794Z,1014.19
2018-09-10T00:55:29.438Z,1014.2
2018-09-10T00:56:38.342Z,1014.23
2018-09-10T00:57:47.251Z,1014.23
2018-09-10T00:58:55.905Z,1014.23
2018-09-10T01:00:04.545Z,1014.25
2018-09-10T01:01:13.193Z,1014.26
2018-09-10T01:02:21.830Z,1014.24
2018-09-10T01:03:30.484Z,1014.26
2018-09-10T01:04:39.391Z,1014.21
2018-09-10T01:05:48.040Z,1014.18
2018-09-10T01:06:56.676Z,1014.17
2018-09-10T01:08:05.333Z,1014.18
2018-09-10T01:09:14.763Z,1014.23
2018-09-10T01:10:23.413Z,1014.2
2018-09-10T01:11:32.046Z,1014.24
2018-09-10T01:12:40.964Z,1014.24
2018-09-10T01:13:49.607Z,1014.2
2018-09-10T01:14:58.505Z,1014.22
2018-09-10T01:16:07.149Z,1014.18
2018-09-10T01:17:15.808Z,1014.25
2018-09-10T01:18:24.448Z,1014.19
2018-09-10T01:19:33.097Z,1014.21
2018-09-10T01:20:41.734Z,1014.17
2018-09-10T01:21:50.388Z,1014.15
2018-09-10T01:22:59.290Z,1014.16
2018-09-10T01:24:08.206Z,1014.15
2018-09-10T01:25:16.842Z,1014.13
2018-09-10T01:26:25.766Z,1014.15
2018-09-10T01:27:34.408Z,1014.13
2018-09-10T01:28:43.070Z,1014.14
2018-09-10T01:29:51.970Z,1014.12
2018-09-10T01:31:00.877Z,1014.1
2018-09-10T01:32:09.796Z,1014.1
2018-09-10T01:33:18.444Z,1014.13
2018-09-10T01:34:27.092Z,1014.1
2018-09-10T01:35:36.006Z,1014.05
2018-09-10T01:36:44.654Z,1014.02
2018-09-10T01:37:53.295Z,1014.01
2018-09-10T01:39:01.949Z,1013.99
2018-09-10T01:40:10.593Z,1014.02
2018-09-10T01:41:19.236Z,1013.99
2018-09-10T01:42:27.877Z,1014.01
2018-09-10T01:43:36.531Z,1014.04
2018-09-10T01:44:45.165Z,1014.06
2018-09-10T01:45:53.816Z,1014.04
2018-09-10T01:47:02.460Z,1014.06
2018-09-10T01:48:11.115Z,1014.05
2018-09-10T01:49:19.756Z,1014.09
2018-09-10T01:50:28.400Z,1014.16
2018-09-10T01:51:37.042Z,1014.14
2018-09-10T01:52:45.687Z,1014.14
2018-09-10T01:53:54.340Z,1014.11
2018-09-10T01:55:02.980Z,1014.14
2018-09-10T01:56:11.630Z,1014.15
2018-09-10T01:57:20.267Z,1014.18
2018-09-10T01:58:29.194Z,1014.21
2018-09-10T01:59:37.832Z,1014.22
2018-09-10T02:00:46.747Z,1014.2
2018-09-10T02:01:55.384Z,1014.25
2018-09-10T02:03:04.038Z,1014.24
2018-09-10T02:04:12.680Z,1014.24
2018-09-10T02:05:21.323Z,1014.23
2018-09-10T02:06:29.960Z,1014.21
2018-09-10T02:07:38.610Z,1014.24
2018-09-10T02:08:47.525Z,1014.23
2018-09-10T02:09:56.171Z,1014.22
2018-09-10T02:11:04.820Z,1014.21
2018-09-10T02:12:13.454Z,1014.2
2018-09-10T02:13:22.102Z,1014.21
2018-09-10T02:14:30.746Z,1014.17
2018-09-10T02:15:39.395Z,1014.2
2018-09-10T02:16:48.034Z,1014.16
2018-09-10T02:17:56.678Z,1014.19
2018-09-10T02:19:05.323Z,1014.2
2018-09-10T02:20:13.974Z,1014.19
2018-09-10T02:21:22.898Z,1014.2
2018-09-10T02:22:31.542Z,1014.17
2018-09-10T02:23:40.260Z,1014.15
2018-09-10T02:24:48.832Z,1014.11
2018-09-10T02:25:57.737Z,1014.07
2018-09-10T02:27:06.385Z,1014.07
2018-09-10T02:28:15.026Z,1014.07
2018-09-10T02:29:24.195Z,1014.08
2018-09-10T02:30:32.849Z,1014.08
2018-09-10T02:31:41.501Z,1014.12
2018-09-10T02:32:50.410Z,1014.11
2018-09-10T02:33:59.049Z,1014.09
2018-09-10T02:35:07.704Z,1014.12
2018-09-10T02:36:16.620Z,1014.11
2018-09-10T02:37:25.261Z,1014.11
2018-09-10T02:38:34.215Z,1014.1
2018-09-10T02:39:42.806Z,1014.11
2018-09-10T02:40:51.451Z,1014.12
2018-09-10T02:42:00.097Z,1014.13
2018-09-10T02:43:09.000Z,1014.13
2018-09-10T02:44:17.653Z,1014.13
2018-09-10T02:45:26.307Z,1014.1
2018-09-10T02:46:34.957Z,1014.08
2018-09-10T02:47:43.868Z,1014.06
2018-09-10T02:48:52.515Z,1014.02
2018-09-10T02:50:01.154Z,1014
2018-09-10T02:51:10.063Z,1014.08
2018-09-10T02:52:18.720Z,1014.04
2018-09-10T02:53:27.358Z,1014.06
2018-09-10T02:54:36.305Z,1014.06
2018-09-10T02:55:44.920Z,1014.11
2018-09-10T02:56:53.827Z,1014.11
2018-09-10T02:58:02.475Z,1014.09
2018-09-10T02:59:11.388Z,1014.11
2018-09-10T03:00:20.293Z,1014.1
2018-09-10T03:01:29.204Z,1014.07
2018-09-10T03:02:37.848Z,1014.06
2018-09-10T03:03:46.493Z,1014.07
2018-09-10T03:04:55.142Z,1014.1
2018-09-10T03:06:03.791Z,1014.12
2018-09-10T03:07:12.697Z,1014.13
2018-09-10T03:08:21.345Z,1014.09
2018-09-10T03:09:30.256Z,1014.08
2018-09-10T03:10:39.159Z,1014.09
2018-09-10T03:11:47.817Z,1014.05
2018-09-10T03:12:56.457Z,1014.06
2018-09-10T03:14:05.374Z,1014.02
2018-09-10T03:15:14.544Z,1014.03
2018-09-10T03:16:23.200Z,1014.04
2018-09-10T03:17:32.107Z,1014.08
2018-09-10T03:18:40.754Z,1014.14
2018-09-10T03:19:49.391Z,1014.15
2018-09-10T03:20:58.037Z,1014.17
2018-09-10T03:22:06.952Z,1014.2
2018-09-10T03:23:15.880Z,1014.17
2018-09-10T03:24:24.529Z,1014.23
2018-09-10T03:25:33.168Z,1014.24
2018-09-10T03:26:41.818Z,1014.26
2018-09-10T03:27:50.722Z,1014.21
2018-09-10T03:28:59.385Z,1014.24
2018-09-10T03:30:08.015Z,1014.23
2018-09-10T03:31:16.681Z,1014.26
2018-09-10T03:32:25.325Z,1014.26
2018-09-10T03:33:34.058Z,1014.21
2018-09-10T03:34:43.030Z,1014.27
2018-09-10T03:35:51.678Z,1014.24
2018-09-10T03:37:00.582Z,1014.26
2018-09-10T03:38:09.239Z,1014.28
2018-09-10T03:39:17.884Z,1014.26
2018-09-10T03:40:26.520Z,1014.24
2018-09-10T03:41:35.163Z,1014.24
2018-09-10T03:42:44.068Z,1014.26
2018-09-10T03:43:52.990Z,1014.24
2018-09-10T03:45:01.633Z,1014.3
2018-09-10T03:46:10.283Z,1014.3
2018-09-10T03:47:19.036Z,1014.34
2018-09-10T03:48:27.576Z,1014.38
2018-09-10T03:49:36.226Z,1014.37
2018-09-10T03:50:45.133Z,1014.39
2018-09-10T03:51:53.769Z,1014.4
2018-09-10T03:53:02.417Z,1014.43
2018-09-10T03:54:11.060Z,1014.45
2018-09-10T03:55:19.708Z,1014.46
2018-09-10T03:56:28.345Z,1014.54
2018-09-10T03:57:36.994Z,1014.59
2018-09-10T03:58:45.647Z,1014.58
2018-09-10T03:59:54.293Z,1014.6
2018-09-10T04:01:02.940Z,1014.61
2018-09-10T04:02:11.575Z,1014.62
2018-09-10T04:03:20.507Z,1014.61
2018-09-10T04:04:29.670Z,1014.59
2018-09-10T04:05:38.327Z,1014.58
2018-09-10T04:06:46.967Z,1014.56
2018-09-10T04:07:55.888Z,1014.53
2018-09-10T04:09:04.527Z,1014.48
2018-09-10T04:10:13.185Z,1014.51
2018-09-10T04:11:21.824Z,1014.47
2018-09-10T04:12:30.742Z,1014.46
2018-09-10T04:13:39.382Z,1014.45
2018-09-10T04:14:48.035Z,1014.42
2018-09-10T04:15:56.677Z,1014.38
2018-09-10T04:17:05.614Z,1014.4
2018-09-10T04:18:14.230Z,1014.4
2018-09-10T04:19:22.874Z,1014.39
2018-09-10T04:20:31.525Z,1014.39
2018-09-10T04:21:40.434Z,1014.39
2018-09-10T04:22:49.083Z,1014.38
2018-09-10T04:23:57.993Z,1014.36
2018-09-10T04:25:06.643Z,1014.38
2018-09-10T04:26:15.290Z,1014.4
2018-09-10T04:27:23.933Z,1014.35
2018-09-10T04:28:32.571Z,1014.43
2018-09-10T04:29:41.221Z,1014.4
2018-09-10T04:30:49.867Z,1014.39
2018-09-10T04:31:58.783Z,1014.35
2018-09-10T04:33:07.412Z,1014.38
2018-09-10T04:34:16.060Z,1014.4
2018-09-10T04:35:24.703Z,1014.39
2018-09-10T04:36:33.351Z,1014.44
2018-09-10T04:37:42.260Z,1014.43
2018-09-10T04:38:50.897Z,1014.47
2018-09-10T04:39:59.543Z,1014.46
2018-09-10T04:41:08.460Z,1014.48
2018-09-10T04:42:17.175Z,1014.51
2018-09-10T04:43:26.142Z,1014.5
2018-09-10T04:44:34.787Z,1014.51
2018-09-10T04:45:43.431Z,1014.51
2018-09-10T04:46:52.082Z,1014.49
2018-09-10T04:48:00.725Z,1014.52
2018-09-10T04:49:09.633Z,1014.52
2018-09-10T04:50:18.276Z,1014.51
2018-09-10T04:51:27.197Z,1014.46
2018-09-10T04:52:35.839Z,1014.47
2018-09-10T04:53:44.744Z,1014.54
2018-09-10T04:54:53.660Z,1014.53
2018-09-10T04:56:02.308Z,1014.57
2018-09-10T04:57:10.959Z,1014.57
2018-09-10T04:58:19.604Z,1014.59
2018-09-10T04:59:28.259Z,1014.59
2018-09-10T05:00:36.899Z,1014.59
2018-09-10T05:01:45.556Z,1014.62
2018-09-10T05:02:54.467Z,1014.65
2018-09-10T05:04:03.110Z,1014.66
2018-09-10T05:05:11.754Z,1014.66
2018-09-10T05:06:20.401Z,1014.69
2018-09-10T05:07:29.053Z,1014.69
2018-09-10T05:08:37.698Z,1014.7
2018-09-10T05:09:46.361Z,1014.73
2018-09-10T05:10:55.345Z,1014.75
2018-09-10T05:12:03.993Z,1014.74
2018-09-10T05:13:12.641Z,1014.74
2018-09-10T05:14:21.294Z,1014.76
2018-09-10T05:15:29.944Z,1014.74
2018-09-10T05:16:39.158Z,1014.77
2018-09-10T05:17:48.069Z,1014.76
2018-09-10T05:18:56.712Z,1014.79
2018-09-10T05:20:05.359Z,1014.78
2018-09-10T05:21:14.008Z,1014.78
2018-09-10T05:22:22.655Z,1014.77
2018-09-10T05:23:31.295Z,1014.81
2018-09-10T05:24:40.223Z,1014.8
2018-09-10T05:25:48.867Z,1014.83
2018-09-10T05:26:57.518Z,1014.85
2018-09-10T05:28:06.201Z,1014.81
2018-09-10T05:29:14.812Z,1014.81
2018-09-10T05:30:23.463Z,1014.86
2018-09-10T05:31:32.651Z,1014.81
2018-09-10T05:32:41.296Z,1014.86
2018-09-10T05:33:49.937Z,1014.88
2018-09-10T05:34:59.114Z,1014.89
2018-09-10T05:36:07.762Z,1014.91
2018-09-10T05:37:16.676Z,1014.88
2018-09-10T05:38:25.578Z,1014.87
2018-09-10T05:39:34.494Z,1014.88
2018-09-10T05:40:43.132Z,1014.89
2018-09-10T05:41:51.782Z,1014.92
2018-09-10T05:43:00.423Z,1014.91
2018-09-10T05:44:09.075Z,1014.88
2018-09-10T05:45:17.987Z,1014.92
2018-09-10T05:46:26.639Z,1014.93
2018-09-10T05:47:35.338Z,1014.99
2018-09-10T05:48:43.925Z,1015.03
2018-09-10T05:49:52.575Z,1015.03
2018-09-10T05:51:01.229Z,1015.03
2018-09-10T05:52:10.143Z,1015.05
2018-09-10T05:53:18.832Z,1015.11
2018-09-10T05:54:27.449Z,1015.11
2018-09-10T05:55:36.126Z,1015.13
2018-09-10T05:56:44.738Z,1015.17
2018-09-10T05:57:53.643Z,1015.19
2018-09-10T05:59:02.291Z,1015.21
2018-09-10T06:00:10.930Z,1015.2
2018-09-10T06:01:19.587Z,1015.22
2018-09-10T06:02:28.229Z,1015.25
2018-09-10T06:03:36.880Z,1015.22
2018-09-10T06:04:45.520Z,1015.26
2018-09-10T06:05:54.166Z,1015.27
2018-09-10T06:07:02.814Z,1015.28
2018-09-10T06:08:11.731Z,1015.32
2018-09-10T06:09:20.379Z,1015.35
2018-09-10T06:10:29.048Z,1015.38
2018-09-10T06:11:37.659Z,1015.39
2018-09-10T06:12:46.305Z,1015.38
2018-09-10T06:13:54.960Z,1015.37
2018-09-10T06:15:03.599Z,1015.38
2018-09-10T06:16:12.251Z,1015.4
2018-09-10T06:17:20.892Z,1015.4
2018-09-10T06:18:29.819Z,1015.4
2018-09-10T06:19:38.720Z,1015.43
2018-09-10T06:20:47.635Z,1015.43
2018-09-10T06:21:56.544Z,1015.4
2018-09-10T06:23:05.199Z,1015.37
2018-09-10T06:24:13.842Z,1015.37
2018-09-10T06:25:22.754Z,1015.38
2018-09-10T06:26:32.231Z,1015.35
2018-09-10T06:27:40.868Z,1015.34
2018-09-10T06:28:49.527Z,1015.37
2018-09-10T06:29:58.163Z,1015.31
2018-09-10T06:31:06.815Z,1015.32
2018-09-10T06:32:15.454Z,1015.35
2018-09-10T06:33:24.105Z,1015.32
2018-09-10T06:34:32.747Z,1015.32
2018-09-10T06:35:41.396Z,1015.37
2018-09-10T06:36:50.293Z,1015.36
2018-09-10T06:37:58.949Z,1015.34
2018-09-10T06:39:07.590Z,1015.3
2018-09-10T06:40:16.240Z,1015.3
2018-09-10T06:41:24.877Z,1015.25
2018-09-10T06:42:33.526Z,1015.26
2018-09-10T06:43:42.177Z,1015.29
2018-09-10T06:44:50.827Z,1015.27
2018-09-10T06:45:59.476Z,1015.24
2018-09-10T06:47:08.113Z,1015.2
2018-09-10T06:48:16.764Z,1015.24
2018-09-10T06:49:25.672Z,1015.23
2018-09-10T06:50:34.588Z,1015.29
2018-09-10T06:51:43.484Z,1015.28
2018-09-10T06:52:52.135Z,1015.26
2018-09-10T06:54:00.778Z,1015.32
2018-09-10T06:55:09.436Z,1015.3
2018-09-10T06:56:18.071Z,1015.28
2018-09-10T06:57:26.719Z,1015.34
2018-09-10T06:58:35.358Z,1015.35
2018-09-10T06:59:44.016Z,1015.37
2018-09-10T07:00:52.918Z,1015.37
2018-09-10T07:02:01.561Z,1015.38
2018-09-10T07:03:10.215Z,1015.38
2018-09-10T07:04:19.119Z,1015.45
2018-09-10T07:05:27.774Z,1015.52
2018-09-10T07:06:36.420Z,1015.48
2018-09-10T07:07:45.067Z,1015.49
2018-09-10T07:08:53.704Z,1015.55
2018-09-10T07:10:02.624Z,1015.58
2018-09-10T07:11:11.265Z,1015.61
2018-09-10T07:12:19.915Z,1015.62
2018-09-10T07:13:28.811Z,1015.65
2018-09-10T07:14:37.465Z,1015.64
2018-09-10T07:15:46.113Z,1015.59
2018-09-10T07:16:54.760Z,1015.64
2018-09-10T07:18:03.401Z,1015.61
2018-09-10T07:19:12.048Z,1015.62
2018-09-10T07:20:20.697Z,1015.61
2018-09-10T07:21:29.349Z,1015.55
2018-09-10T07:22:37.998Z,1015.57
2018-09-10T07:23:46.636Z,1015.62
2018-09-10T07:24:55.288Z,1015.62
2018-09-10T07:26:03.951Z,1015.65
2018-09-10T07:27:12.587Z,1015.66
2018-09-10T07:28:21.226Z,1015.68
2018-09-10T07:29:29.877Z,1015.67
2018-09-10T07:30:38.513Z,1015.71
2018-09-10T07:31:47.169Z,1015.71
2018-09-10T07:32:55.808Z,1015.72
2018-09-10T07:34:04.463Z,1015.72
2018-09-10T07:35:13.381Z,1015.73
2018-09-10T07:36:22.040Z,1015.74
2018-09-10T07:37:30.956Z,1015.75
2018-09-10T07:38:39.598Z,1015.74
2018-09-10T07:39:48.243Z,1015.65
2018-09-10T07:40:56.887Z,1015.61
2018-09-10T07:42:05.546Z,1015.61
2018-09-10T07:43:14.449Z,1015.58
2018-09-10T07:44:23.102Z,1015.59
2018-09-10T07:45:31.739Z,1015.56
2018-09-10T07:46:40.398Z,1015.54
2018-09-10T07:47:49.038Z,1015.57
2018-09-10T07:48:57.739Z,1015.57
2018-09-10T07:50:06.327Z,1015.63
2018-09-10T07:51:14.982Z,1015.65
2018-09-10T07:52:23.626Z,1015.67
2018-09-10T07:53:32.277Z,1015.67
2018-09-10T07:54:40.980Z,1015.67
2018-09-10T07:55:49.567Z,1015.75
2018-09-10T07:56:58.217Z,1015.73
2018-09-10T07:58:06.864Z,1015.77
2018-09-10T07:59:15.517Z,1015.77
2018-09-10T08:00:24.412Z,1015.75
2018-09-10T08:01:33.064Z,1015.69
2018-09-10T08:02:41.706Z,1015.74
2018-09-10T08:03:50.362Z,1015.74
2018-09-10T08:04:59.001Z,1015.74
2018-09-10T08:06:07.648Z,1015.74
2018-09-10T08:07:16.563Z,1015.75
2018-09-10T08:08:25.213Z,1015.71
2018-09-10T08:09:34.176Z,1015.7
2018-09-10T08:10:42.767Z,1015.66
2018-09-10T08:11:51.413Z,1015.66
2018-09-10T08:13:00.063Z,1015.78
2018-09-10T08:14:08.709Z,1015.83
2018-09-10T08:15:17.357Z,1015.9
2018-09-10T08:16:26.018Z,1015.96
2018-09-10T08:17:34.650Z,1016.02
2018-09-10T08:18:43.304Z,1016.01
2018-09-10T08:19:51.963Z,1016.03
2018-09-10T08:21:00.598Z,1016
2018-09-10T08:22:09.238Z,1015.98
2018-09-10T08:23:17.891Z,1015.97
2018-09-10T08:24:26.628Z,1015.97
2018-09-10T08:25:35.588Z,1015.94
2018-09-10T08:26:44.233Z,1015.94
2018-09-10T08:27:52.885Z,1015.94
2018-09-10T08:29:01.532Z,1015.97
2018-09-10T08:30:10.180Z,1016.02
2018-09-10T08:31:18.821Z,1016.05
2018-09-10T08:32:27.472Z,1016.05
2018-09-10T08:33:36.120Z,1016.03
2018-09-10T08:34:44.813Z,1016.03
2018-09-10T08:35:53.414Z,1016.07
2018-09-10T08:37:03.528Z,1016.07
2018-09-10T08:38:12.178Z,1016.07
2018-09-10T08:39:20.818Z,1016.11
2018-09-10T08:40:29.471Z,1016.07
2018-09-10T08:41:38.114Z,1016.09
2018-09-10T08:42:46.800Z,1016.08
2018-09-10T08:43:55.416Z,1016.06
2018-09-10T08:45:04.333Z,1016.08
2018-09-10T08:46:12.980Z,1016.09
2018-09-10T08:47:21.632Z,1016.09
2018-09-10T08:48:30.274Z,1016.05
2018-09-10T08:49:39.190Z,1015.98
2018-09-10T08:50:48.097Z,1016.01
2018-09-10T08:51:57.013Z,1015.96
2018-09-10T08:53:05.655Z,1015.98
2018-09-10T08:54:14.467Z,1016.03
2018-09-10T08:55:23.130Z,1016.11
2018-09-10T08:56:32.203Z,1016.15
2018-09-10T08:57:40.851Z,1016.17
2018-09-10T08:58:50.048Z,1016.19
2018-09-10T08:59:58.700Z,1016.24
2018-09-10T09:01:07.899Z,1016.27
2018-09-10T09:02:16.547Z,1016.24
2018-09-10T09:03:25.444Z,1016.28
2018-09-10T09:04:34.323Z,1016.26
2018-09-10T09:05:43.125Z,1016.27
2018-09-10T09:06:51.861Z,1016.29
2018-09-10T09:08:00.843Z,1016.31
2018-09-10T09:09:09.472Z,1016.26
2018-09-10T09:10:18.121Z,1016.25
2018-09-10T09:11:26.763Z,1016.22
2018-09-10T09:12:35.410Z,1016.17
2018-09-10T09:13:44.066Z,1016.16
2018-09-10T09:14:52.714Z,1016.12
2018-09-10T09:16:01.361Z,1016.09
2018-09-10T09:17:10.006Z,1016.13
2018-09-10T09:18:18.662Z,1016.19
2018-09-10T09:19:27.306Z,1016.21
2018-09-10T09:20:35.952Z,1016.24
2018-09-10T09:21:44.599Z,1016.26
2018-09-10T09:22:53.253Z,1016.32
2018-09-10T09:24:01.901Z,1016.33
2018-09-10T09:25:10.551Z,1016.35
2018-09-10T09:26:19.193Z,1016.35
2018-09-10T09:27:28.104Z,1016.28
2018-09-10T09:28:36.753Z,1016.32
2018-09-10T09:29:45.417Z,1016.3
2018-09-10T09:30:54.057Z,1016.31
2018-09-10T09:32:02.701Z,1016.33
2018-09-10T09:33:11.350Z,1016.33
2018-09-10T09:34:20.001Z,1016.35
2018-09-10T09:35:28.769Z,1016.4
2018-09-10T09:36:37.673Z,1016.41
2018-09-10T09:37:46.322Z,1016.43
2018-09-10T09:38:54.968Z,1016.34
2018-09-10T09:40:04.146Z,1016.33
2018-09-10T09:41:12.794Z,1016.35
2018-09-10T09:42:21.712Z,1016.32
2018-09-10T09:43:30.423Z,1016.38
2018-09-10T09:44:39.012Z,1016.41
2018-09-10T09:45:47.663Z,1016.41
2018-09-10T09:46:56.312Z,1016.4
2018-09-10T09:48:04.958Z,1016.42
2018-09-10T09:49:13.607Z,1016.43
2018-09-10T09:50:22.283Z,1016.42
2018-09-10T09:51:31.121Z,1016.36
2018-09-10T09:52:40.038Z,1016.34
2018-09-10T09:53:48.681Z,1016.36
2018-09-10T09:54:57.339Z,1016.37
2018-09-10T09:56:05.984Z,1016.37
2018-09-10T09:57:14.634Z,1016.38
2018-09-10T09:58:23.284Z,1016.41
2018-09-10T09:59:32.467Z,1016.43
2018-09-10T10:00:41.426Z,1016.41
2018-09-10T10:01:50.142Z,1016.39
2018-09-10T10:02:59.090Z,1016.38
2018-09-10T10:04:07.780Z,1016.36
2018-09-10T10:05:16.395Z,1016.3
2018-09-10T10:06:25.303Z,1016.38
2018-09-10T10:07:33.954Z,1016.38
2018-09-10T10:08:42.595Z,1016.36
2018-09-10T10:09:51.249Z,1016.35
2018-09-10T10:10:59.892Z,1016.33
2018-09-10T10:12:08.652Z,1016.28
2018-09-10T10:13:17.196Z,1016.24
2018-09-10T10:14:25.851Z,1016.21
2018-09-10T10:15:34.519Z,1016.24
2018-09-10T10:16:43.175Z,1016.23
2018-09-10T10:17:51.818Z,1016.27
2018-09-10T10:19:00.469Z,1016.34
2018-09-10T10:20:09.113Z,1016.41
2018-09-10T10:21:17.770Z,1016.48
2018-09-10T10:22:26.416Z,1016.48
2018-09-10T10:23:35.061Z,1016.38
2018-09-10T10:24:43.746Z,1016.34
2018-09-10T10:25:52.689Z,1016.34
2018-09-10T10:27:01.348Z,1016.36
2018-09-10T10:28:10.037Z,1016.38
2018-09-10T10:29:19.088Z,1016.33
2018-09-10T10:30:27.999Z,1016.32
2018-09-10T10:31:36.652Z,1016.34
2018-09-10T10:32:45.293Z,1016.33
2018-09-10T10:33:54.212Z,1016.33
2018-09-10T10:35:02.854Z,1016.35
2018-09-10T10:36:11.776Z,1016.36
2018-09-10T10:37:20.428Z,1016.35
2018-09-10T10:38:29.078Z,1016.3
2018-09-10T10:39:37.718Z,1016.27
2018-09-10T10:40:46.370Z,1016.24
2018-09-10T10:41:55.023Z,1016.22
2018-09-10T10:43:03.674Z,1016.2
2018-09-10T10:44:12.325Z,1016.26
2018-09-10T10:45:20.965Z,1016.27
2018-09-10T10:46:29.619Z,1016.26
2018-09-10T10:47:38.263Z,1016.24
2018-09-10T10:48:46.922Z,1016.15
2018-09-10T10:49:55.567Z,1016.09
2018-09-10T10:51:04.224Z,1016.1
2018-09-10T10:52:12.867Z,1016.22
2018-09-10T10:53:21.525Z,1016.24
2018-09-10T10:54:30.221Z,1016.29
2018-09-10T10:55:38.895Z,1016.33
2018-09-10T10:56:47.550Z,1016.34
2018-09-10T10:57:56.207Z,1016.42
2018-09-10T10:59:04.854Z,1016.4
2018-09-10T11:00:13.501Z,1016.43
2018-09-10T11:01:22.148Z,1016.38
2018-09-10T11:02:31.063Z,1016.38
2018-09-10T11:03:39.717Z,1016.34
2018-09-10T11:04:48.362Z,1016.37
2018-09-10T11:05:57.015Z,1016.35
2018-09-10T11:07:05.659Z,1016.32
2018-09-10T11:08:14.315Z,1016.28
2018-09-10T11:09:22.963Z,1016.3
2018-09-10T11:10:31.608Z,1016.35
2018-09-10T11:11:40.789Z,1016.33
2018-09-10T11:12:49.442Z,1016.33
2018-09-10T11:13:58.091Z,1016.3
2018-09-10T11:15:06.741Z,1016.28
2018-09-10T11:16:15.386Z,1016.33
2018-09-10T11:17:24.042Z,1016.27
2018-09-10T11:18:32.686Z,1016.27
2018-09-10T11:19:41.337Z,1016.27
2018-09-10T11:20:49.988Z,1016.28
2018-09-10T11:21:58.664Z,1016.26
2018-09-10T11:23:07.315Z,1016.29
2018-09-10T11:24:15.965Z,1016.3
2018-09-10T11:25:24.619Z,1016.31
2018-09-10T11:26:33.269Z,1016.37
2018-09-10T11:27:41.978Z,1016.36
2018-09-10T11:28:51.043Z,1016.39
2018-09-10T11:30:00.097Z,1016.35
2018-09-10T11:31:08.949Z,1016.39
2018-09-10T11:32:17.602Z,1016.33
2018-09-10T11:33:26.250Z,1016.37
2018-09-10T11:34:34.913Z,1016.39
2018-09-10T11:35:43.553Z,1016.36
2018-09-10T11:36:52.465Z,1016.4
2018-09-10T11:38:01.378Z,1016.32
2018-09-10T11:39:10.286Z,1016.29
2018-09-10T11:40:18.939Z,1016.24
2018-09-10T11:41:27.589Z,1016.26
2018-09-10T11:42:36.239Z,1016.28
2018-09-10T11:43:44.885Z,1016.23
2018-09-10T11:44:53.539Z,1016.22
2018-09-10T11:46:02.191Z,1016.21
2018-09-10T11:47:11.097Z,1016.19
2018-09-10T11:48:19.745Z,1016.21
2018-09-10T11:49:28.398Z,1016.25
2018-09-10T11:50:37.045Z,1016.24
2018-09-10T11:51:45.696Z,1016.25
2018-09-10T11:52:54.343Z,1016.28
2018-09-10T11:54:03.036Z,1016.32
2018-09-10T11:55:12.283Z,1016.33
2018-09-10T11:56:21.475Z,1016.32
2018-09-10T11:57:30.426Z,1016.3
2018-09-10T11:58:39.072Z,1016.35
2018-09-10T11:59:47.726Z,1016.34
2018-09-10T12:00:56.366Z,1016.39
2018-09-10T12:02:05.072Z,1016.34
2018-09-10T12:03:13.746Z,1016.39
2018-09-10T12:04:22.445Z,1016.41
2018-09-10T12:05:31.150Z,1016.44
2018-09-10T12:06:39.871Z,1016.41
2018-09-10T12:07:48.537Z,1016.41
2018-09-10T12:08:57.194Z,1016.38
2018-09-10T12:10:06.494Z,1016.41
2018-09-10T12:11:15.153Z,1016.43
2018-09-10T12:12:23.861Z,1016.41
2018-09-10T12:13:33.071Z,1016.41
2018-09-10T12:14:42.157Z,1016.45
2018-09-10T12:15:51.091Z,1016.47
2018-09-10T12:16:59.771Z,1016.5
2018-09-10T12:18:08.421Z,1016.48
2018-09-10T12:19:17.093Z,1016.53
2018-09-10T12:20:25.746Z,1016.48
2018-09-10T12:21:34.735Z,1016.56
2018-09-10T12:22:43.331Z,1016.59
2018-09-10T12:23:51.984Z,1016.59
2018-09-10T12:25:00.621Z,1016.6
2018-09-10T12:26:09.555Z,1016.63
2018-09-10T12:27:18.218Z,1016.64
2018-09-10T12:28:26.951Z,1016.68
2018-09-10T12:29:35.861Z,1016.73
2018-09-10T12:30:44.644Z,1016.77
2018-09-10T12:31:53.433Z,1016.78
2018-09-10T12:33:02.775Z,1016.77
2018-09-10T12:34:11.430Z,1016.74
2018-09-10T12:35:20.582Z,1016.78
2018-09-10T12:36:29.544Z,1016.71
2018-09-10T12:37:38.560Z,1016.69
2018-09-10T12:38:47.217Z,1016.7
2018-09-10T12:39:55.922Z,1016.77
2018-09-10T12:41:04.576Z,1016.79
2018-09-10T12:42:13.224Z,1016.8
2018-09-10T12:43:21.890Z,1016.81
2018-09-10T12:44:30.528Z,1016.85
2018-09-10T12:45:39.183Z,1016.79
2018-09-10T12:46:47.828Z,1016.81
2018-09-10T12:47:56.488Z,1016.86
2018-09-10T12:49:05.132Z,1016.88
2018-09-10T12:50:13.777Z,1016.84
2018-09-10T12:51:22.427Z,1016.86
2018-09-10T12:52:31.071Z,1016.9
2018-09-10T12:53:39.730Z,1016.87
2018-09-10T12:54:48.374Z,1016.84
2018-09-10T12:55:57.028Z,1016.79
2018-09-10T12:57:05.668Z,1016.81
2018-09-10T12:58:14.319Z,1016.79
2018-09-10T12:59:22.972Z,1016.78
2018-09-10T13:00:31.619Z,1016.75
2018-09-10T13:01:40.280Z,1016.66
2018-09-10T13:02:48.920Z,1016.66
2018-09-10T13:03:57.575Z,1016.64
2018-09-10T13:05:06.217Z,1016.52
2018-09-10T13:06:15.209Z,1016.52
2018-09-10T13:07:23.888Z,1016.57
2018-09-10T13:08:32.534Z,1016.55
2018-09-10T13:09:41.230Z,1016.44
2018-09-10T13:10:50.157Z,1016.46
2018-09-10T13:11:58.579Z,1016.49
2018-09-10T13:13:07.554Z,1016.48
2018-09-10T13:14:16.523Z,1016.49
2018-09-10T13:15:25.202Z,1016.46
2018-09-10T13:16:33.862Z,1016.47
2018-09-10T13:17:42.509Z,1016.47
2018-09-10T13:18:51.192Z,1016.41
2018-09-10T13:19:59.939Z,1016.49
2018-09-10T13:21:08.865Z,1016.51
2018-09-10T13:22:17.651Z,1016.56
2018-09-10T13:23:26.814Z,1016.55
2018-09-10T13:24:35.573Z,1016.51
2018-09-10T13:25:44.233Z,1016.44
2018-09-10T13:26:53.157Z,1016.44
2018-09-10T13:28:01.810Z,1016.42
2018-09-10T13:29:10.464Z,1016.47
2018-09-10T13:30:19.105Z,1016.45
2018-09-10T13:31:27.763Z,1016.43
2018-09-10T13:32:36.408Z,1016.36
2018-09-10T13:33:45.068Z,1016.37
2018-09-10T13:34:53.706Z,1016.36
2018-09-10T13:36:02.359Z,1016.41
2018-09-10T13:37:11.008Z,1016.39
2018-09-10T13:38:19.664Z,1016.42
2018-09-10T13:39:28.305Z,1016.45
2018-09-10T13:40:36.963Z,1016.41
2018-09-10T13:41:45.611Z,1016.42
2018-09-10T13:42:54.545Z,1016.52
2018-09-10T13:44:03.186Z,1016.53
2018-09-10T13:45:11.830Z,1016.48
2018-09-10T13:46:20.479Z,1016.43
2018-09-10T13:47:29.127Z,1016.42
2018-09-10T13:48:37.788Z,1016.44
2018-09-10T13:49:46.431Z,1016.56
2018-09-10T13:50:55.085Z,1016.63
2018-09-10T13:52:03.727Z,1016.6
2018-09-10T13:53:12.387Z,1016.53